Time;durP1;ratioP1;P1;durP2;ratioP2;P2;SDS_P1;SDS_P2;PMS_P1;PMS_P2;Temp;Humidity;BMP_temperature;BMP_pressure;BME280_temperature;BME280_humidity;BME280_pressure;Samples;Min_cycle;Max_cycle;Signal;HPM_P1;HPM_P2
2021/11/18 00:00:26;;;;;;;0.10;0.10;;;;;;;5.16;85.99;102783.38;5078342;28;20056;-68
2021/11/18 00:02:52;;;;;;;0.00;0.00;;;;;;;5.15;86.07;102782.44;5044731;28;20021;-69
2021/11/18 00:05:19;;;;;;;0.00;0.00;;;;;;;5.13;85.86;102778.84;5077437;28;20041;-68
2021/11/18 00:07:46;;;;;;;0.10;0.10;;;;;;;5.12;85.83;102784.81;5078935;28;20038;-68
2021/11/18 00:10:15;;;;;;;0.20;0.20;;;;;;;5.14;85.93;102790.09;5078769;28;20064;-69
2021/11/18 00:12:42;;;;;;;0.10;0.10;;;;;;;5.13;85.84;102781.44;5079945;28;20082;-69
2021/11/18 00:15:09;;;;;;;0.00;0.00;;;;;;;5.11;85.73;102785.56;5079412;28;20112;-69
2021/11/18 00:17:35;;;;;;;0.10;0.10;;;;;;;5.09;85.72;102787.13;5079829;28;20119;-69
2021/11/18 00:20:02;;;;;;;0.07;0.07;;;;;;;5.07;85.78;102791.31;5078427;28;20446;-69
2021/11/18 00:22:27;;;;;;;0.10;0.10;;;;;;;5.03;85.81;102782.34;5075963;28;20055;-68
2021/11/18 00:24:53;;;;;;;0.00;0.00;;;;;;;4.99;85.84;102779.38;5077344;28;20383;-68
2021/11/18 00:27:18;;;;;;;0.00;0.00;;;;;;;4.97;85.93;102791.34;5062152;28;20044;-68
2021/11/18 00:29:43;;;;;;;0.10;0.10;;;;;;;4.95;86.16;102788.59;5079416;28;20024;-68
2021/11/18 00:32:08;;;;;;;0.10;0.10;;;;;;;4.92;85.78;102794.44;5079227;28;20024;-70
2021/11/18 00:34:34;;;;;;;0.10;0.10;;;;;;;4.92;85.99;102790.97;5061155;28;20077;-68
2021/11/18 00:36:59;;;;;;;0.10;0.10;;;;;;;4.89;85.95;102790.69;5078796;28;20093;-69
2021/11/18 00:39:25;;;;;;;0.10;0.10;;;;;;;4.87;85.99;102795.78;5079230;28;20032;-68
2021/11/18 00:41:50;;;;;;;0.10;0.10;;;;;;;4.85;85.88;102799.03;5060026;28;20074;-68
2021/11/18 00:44:15;;;;;;;0.00;0.00;;;;;;;4.82;85.83;102799.66;5079007;28;20074;-68
2021/11/18 00:46:41;;;;;;;0.10;0.10;;;;;;;4.80;86.10;102796.03;5079437;28;20103;-69
2021/11/18 00:49:06;;;;;;;0.03;0.03;;;;;;;4.78;86.11;102793.31;5078450;28;20056;-68
2021/11/18 00:51:32;;;;;;;0.00;0.00;;;;;;;4.76;86.07;102796.56;5079105;28;20059;-67
2021/11/18 00:54:00;;;;;;;0.00;0.00;;;;;;;4.74;86.06;102796.41;5078757;28;20035;-69
2021/11/18 00:56:26;;;;;;;0.10;0.10;;;;;;;4.72;86.40;102782.41;5078690;28;20040;-69
2021/11/18 00:58:54;;;;;;;0.00;0.00;;;;;;;4.75;86.13;102787.88;5061285;28;20101;-68
2021/11/18 01:01:21;;;;;;;0.10;0.10;;;;;;;4.74;85.99;102786.03;5061334;28;20032;-69
2021/11/18 01:03:47;;;;;;;0.10;0.10;;;;;;;4.75;86.25;102786.94;5060585;28;20046;-68
2021/11/18 01:06:13;;;;;;;0.10;0.10;;;;;;;4.78;86.41;102795.91;5078703;28;20024;-68
2021/11/18 01:08:38;;;;;;;0.10;0.10;;;;;;;4.80;86.35;102801.25;5078790;28;20067;-69
2021/11/18 01:11:14;;;;;;;0.10;0.10;;;;;;;4.83;86.28;102814.47;5078465;28;20055;-69
2021/11/18 01:13:41;;;;;;;0.00;0.00;;;;;;;4.84;86.24;102808.47;5078202;28;20036;-69
2021/11/18 01:16:08;;;;;;;0.07;0.07;;;;;;;4.86;86.39;102806.91;5078436;28;20029;-69
2021/11/18 01:18:34;;;;;;;0.00;0.00;;;;;;;4.89;86.26;102807.19;5078291;28;20032;-68
2021/11/18 01:21:01;;;;;;;0.10;0.10;;;;;;;4.92;86.57;102796.16;5077921;28;20028;-69
2021/11/18 01:23:30;;;;;;;0.10;0.10;;;;;;;4.92;86.40;102804.84;5061342;28;20405;-67
2021/11/18 01:25:55;;;;;;;0.10;0.10;;;;;;;4.92;86.55;102798.75;5078339;28;20450;-68
2021/11/18 01:28:21;;;;;;;0.10;0.10;;;;;;;4.91;86.31;102803.03;5061157;28;20120;-69
2021/11/18 01:30:46;;;;;;;0.00;0.00;;;;;;;4.91;86.23;102789.13;5077681;28;20047;-68
2021/11/18 01:33:14;;;;;;;0.10;0.10;;;;;;;4.91;86.47;102796.91;5078146;28;20405;-69
2021/11/18 01:35:40;;;;;;;0.07;0.07;;;;;;;4.91;86.35;102807.28;5060720;28;20017;-69
2021/11/18 01:38:06;;;;;;;0.10;0.10;;;;;;;4.89;86.28;102812.38;5077834;28;20060;-68
2021/11/18 01:40:36;;;;;;;0.10;0.10;;;;;;;4.89;86.43;102807.19;5077944;28;20020;-69
2021/11/18 01:43:03;;;;;;;0.10;0.10;;;;;;;4.88;86.06;102801.84;5058139;28;20021;-69
2021/11/18 01:45:30;;;;;;;0.10;0.10;;;;;;;4.88;86.35;102807.97;5045465;28;20340;-69
2021/11/18 01:47:56;;;;;;;0.00;0.00;;;;;;;4.91;86.48;102809.88;5077348;28;20322;-67
2021/11/18 01:50:24;;;;;;;0.00;0.00;;;;;;;4.92;86.48;102817.81;5060075;28;20028;-69
2021/11/18 01:52:50;;;;;;;0.10;0.10;;;;;;;4.93;86.49;102813.53;5077728;28;20063;-69
2021/11/18 01:55:20;;;;;;;0.00;0.00;;;;;;;4.98;86.66;102824.31;5043527;28;20020;-68
2021/11/18 01:57:46;;;;;;;0.00;0.00;;;;;;;5.01;86.21;102827.16;5077918;28;20036;-68
2021/11/18 02:00:15;;;;;;;0.10;0.10;;;;;;;5.03;86.58;102818.72;5077186;28;20029;-68
2021/11/18 02:02:41;;;;;;;0.10;0.10;;;;;;;5.07;86.33;102826.00;5078003;28;20013;-68
2021/11/18 02:05:15;;;;;;;0.00;0.00;;;;;;;5.12;86.56;102830.63;5076646;28;20386;-68
2021/11/18 02:07:43;;;;;;;0.10;0.10;;;;;;;5.14;86.52;102842.06;5078054;28;20020;-69
2021/11/18 02:10:10;;;;;;;0.00;0.00;;;;;;;5.15;86.46;102842.19;5059527;28;20377;-68
2021/11/18 02:12:36;;;;;;;0.00;0.00;;;;;;;5.16;86.69;102838.81;5077269;28;20351;-68
2021/11/18 02:15:03;;;;;;;0.10;0.10;;;;;;;5.20;86.61;102837.38;5059997;28;20043;-69
2021/11/18 02:17:29;;;;;;;0.00;0.00;;;;;;;5.22;86.58;102838.41;5077889;28;20048;-68
2021/11/18 02:19:57;;;;;;;0.00;0.00;;;;;;;5.25;86.72;102822.16;5075475;28;20036;-69
2021/11/18 02:22:23;;;;;;;0.10;0.10;;;;;;;5.28;86.61;102825.91;5058761;28;20036;-68
2021/11/18 02:24:52;;;;;;;0.10;0.10;;;;;;;5.33;86.28;102826.28;5077209;28;20047;-70
2021/11/18 02:27:20;;;;;;;0.00;0.00;;;;;;;5.46;86.78;102826.53;5077461;28;20330;-69
2021/11/18 02:29:48;;;;;;;0.10;0.10;;;;;;;5.49;86.50;102833.66;5077185;28;20040;-68
2021/11/18 02:32:18;;;;;;;0.10;0.10;;;;;;;5.52;86.22;102838.22;5076518;28;20036;-68
2021/11/18 02:34:57;;;;;;;0.00;0.00;;;;;;;5.53;85.95;102840.91;5059503;28;20024;-69
2021/11/18 02:37:23;;;;;;;0.07;0.07;;;;;;;5.54;86.30;102837.53;5059176;28;20064;-68
2021/11/18 02:39:48;;;;;;;0.00;0.00;;;;;;;5.55;85.99;102839.34;5076632;28;20029;-68
2021/11/18 02:42:15;;;;;;;0.03;0.03;;;;;;;5.65;86.45;102830.59;5076484;28;20082;-68
2021/11/18 02:44:41;;;;;;;0.00;0.00;;;;;;;5.74;86.30;102843.44;5042762;28;20016;-69
2021/11/18 02:47:12;;;;;;;0.00;0.00;;;;;;;5.77;86.47;102836.78;5076252;28;20054;-68
2021/11/18 02:49:48;;;;;;;0.00;0.00;;;;;;;5.78;86.36;102836.00;5075792;28;20433;-70
2021/11/18 02:52:17;;;;;;;0.00;0.00;;;;;;;5.81;86.08;102837.03;5059185;28;20047;-69
2021/11/18 02:54:43;;;;;;;0.00;0.00;;;;;;;5.80;86.04;102820.53;5077268;28;20028;-68
2021/11/18 02:57:08;;;;;;;0.10;0.10;;;;;;;5.82;86.34;102831.03;5059431;28;20358;-67
2021/11/18 02:59:36;;;;;;;0.10;0.10;;;;;;;5.83;86.34;102825.03;5077031;28;20078;-70
2021/11/18 03:02:04;;;;;;;0.10;0.10;;;;;;;5.87;86.25;102816.72;5076041;28;20048;-69
2021/11/18 03:04:29;;;;;;;0.03;0.03;;;;;;;5.88;86.01;102816.84;5076656;28;20021;-69
2021/11/18 03:06:54;;;;;;;0.13;0.13;;;;;;;5.90;86.24;102824.75;5076858;28;20406;-68
2021/11/18 03:09:20;;;;;;;0.07;0.07;;;;;;;5.91;86.27;102829.16;5076732;28;20372;-69
2021/11/18 03:11:46;;;;;;;0.00;0.00;;;;;;;5.90;86.27;102833.47;5076930;28;20115;-69
2021/11/18 03:14:11;;;;;;;0.00;0.00;;;;;;;5.91;86.24;102827.47;5076026;28;20044;-68
2021/11/18 03:16:36;;;;;;;0.00;0.00;;;;;;;5.93;86.35;102829.28;5059603;28;20112;-69
2021/11/18 03:19:03;;;;;;;0.10;0.10;;;;;;;5.91;86.14;102824.88;5075968;28;20055;-69
2021/11/18 03:21:29;;;;;;;0.00;0.00;;;;;;;5.93;86.08;102824.09;5076709;28;20327;-68
2021/11/18 03:23:55;;;;;;;0.10;0.10;;;;;;;5.93;86.16;102817.22;5076611;28;20017;-69
2021/11/18 03:26:25;;;;;;;0.10;0.10;;;;;;;5.93;86.13;102819.81;5077079;28;20024;-70
2021/11/18 03:28:50;;;;;;;0.03;0.03;;;;;;;5.93;86.03;102817.22;5076654;28;20020;-69
2021/11/18 03:31:17;;;;;;;0.03;0.03;;;;;;;5.94;86.18;102825.91;5075840;28;20123;-67
2021/11/18 03:33:49;;;;;;;0.20;0.20;;;;;;;5.93;86.35;102825.00;5076257;28;20028;-68
2021/11/18 03:36:16;;;;;;;0.00;0.00;;;;;;;5.94;86.41;102825.91;5058900;28;20032;-69
2021/11/18 03:38:42;;;;;;;0.20;0.20;;;;;;;5.94;86.31;102829.44;5076444;28;20073;-69
2021/11/18 03:41:08;;;;;;;0.00;0.00;;;;;;;5.93;86.12;102825.00;5076135;28;20036;-68
2021/11/18 03:43:36;;;;;;;0.07;0.07;;;;;;;5.91;86.37;102822.28;5059301;28;20024;-68
2021/11/18 03:46:03;;;;;;;0.10;0.10;;;;;;;5.91;86.47;102829.16;5076324;28;20012;-68
2021/11/18 03:48:30;;;;;;;0.10;0.10;;;;;;;5.88;86.31;102813.34;5075754;28;20043;-69
2021/11/18 03:50:56;;;;;;;0.00;0.00;;;;;;;5.85;86.31;102826.09;5076054;28;20036;-68
2021/11/18 03:53:21;;;;;;;0.00;0.00;;;;;;;5.81;86.48;102830.16;5076590;28;20028;-69
2021/11/18 03:55:48;;;;;;;0.10;0.10;;;;;;;5.78;86.62;102822.09;5059030;28;20021;-70
2021/11/18 03:58:13;;;;;;;0.10;0.10;;;;;;;5.73;86.22;102813.91;5076944;28;20036;-69
2021/11/18 04:00:39;;;;;;;0.10;0.10;;;;;;;5.71;86.23;102817.16;5080014;28;20021;-69
2021/11/18 04:03:05;;;;;;;0.00;0.00;;;;;;;5.68;86.41;102822.13;5080054;28;20138;-70
2021/11/18 04:05:32;;;;;;;0.00;0.00;;;;;;;5.64;86.26;102831.38;5079418;28;20020;-68
2021/11/18 04:07:58;;;;;;;0.00;0.00;;;;;;;5.60;86.17;102829.34;5079727;28;20032;-69
2021/11/18 04:10:26;;;;;;;0.10;0.10;;;;;;;5.56;86.34;102830.78;5080049;28;20035;-69
2021/11/18 04:12:52;;;;;;;0.10;0.10;;;;;;;5.52;86.59;102830.41;5079705;28;20082;-68
2021/11/18 04:15:19;;;;;;;0.10;0.10;;;;;;;5.48;86.23;102827.53;5062267;28;20284;-68
2021/11/18 04:17:45;;;;;;;0.10;0.10;;;;;;;5.46;86.35;102831.72;5080162;28;20024;-70
2021/11/18 04:20:12;;;;;;;0.10;0.10;;;;;;;5.44;86.34;102833.28;5061750;28;20281;-68
2021/11/18 04:22:38;;;;;;;0.10;0.10;;;;;;;5.43;86.65;102839.25;5079158;28;20021;-69
2021/11/18 04:25:07;;;;;;;0.10;0.10;;;;;;;5.40;86.70;102827.72;5079470;28;20016;-69
2021/11/18 04:27:33;;;;;;;0.20;0.20;;;;;;;5.38;86.81;102834.47;5079919;28;20020;-69
2021/11/18 04:29:59;;;;;;;0.10;0.10;;;;;;;5.36;86.63;102827.44;5078611;28;20493;-68
2021/11/18 04:32:26;;;;;;;0.10;0.10;;;;;;;5.34;86.81;102823.84;5079510;28;20032;-68
2021/11/18 04:34:52;;;;;;;0.10;0.10;;;;;;;5.33;86.89;102824.63;5045031;28;20028;-68
2021/11/18 04:37:18;;;;;;;0.00;0.00;;;;;;;5.35;87.08;102809.13;5078859;28;20694;-68
2021/11/18 04:39:43;;;;;;;0.10;0.10;;;;;;;5.33;86.95;102798.63;5079718;28;20028;-67
2021/11/18 04:42:10;;;;;;;0.10;0.10;;;;;;;5.32;86.58;102801.09;5078665;28;20028;-68
2021/11/18 04:44:35;;;;;;;0.10;0.10;;;;;;;5.28;86.83;102809.44;5061748;28;20032;-69
2021/11/18 04:47:07;;;;;;;0.10;0.10;;;;;;;5.24;86.82;102805.69;5079309;28;20031;-67
2021/11/18 04:49:33;;;;;;;0.00;0.00;;;;;;;5.21;86.82;102813.22;5078862;28;20660;-70
2021/11/18 04:51:59;;;;;;;0.10;0.10;;;;;;;5.18;86.59;102805.19;5079028;28;20024;-68
2021/11/18 04:54:24;;;;;;;0.10;0.10;;;;;;;5.16;86.67;102799.84;5079279;28;20043;-69
2021/11/18 04:56:50;;;;;;;0.10;0.10;;;;;;;5.15;86.96;102787.66;5079180;28;20020;-69
2021/11/18 04:59:15;;;;;;;0.10;0.10;;;;;;;5.14;86.85;102784.91;5078119;28;20077;-68
2021/11/18 05:01:40;;;;;;;0.10;0.10;;;;;;;5.15;86.63;102786.72;5078831;28;20070;-67
2021/11/18 05:04:07;;;;;;;0.10;0.10;;;;;;;5.16;87.00;102797.25;5078270;28;20028;-68
2021/11/18 05:06:33;;;;;;;0.00;0.00;;;;;;;5.17;86.90;102803.38;5079599;28;20306;-67
2021/11/18 05:08:58;;;;;;;0.00;0.00;;;;;;;5.18;86.75;102810.38;5078603;28;20021;-68
2021/11/18 05:11:24;;;;;;;0.10;0.10;;;;;;;5.16;86.88;102815.44;5077981;28;20025;-68
2021/11/18 05:13:50;;;;;;;0.10;0.10;;;;;;;5.13;86.79;102814.28;5078758;28;20024;-68
2021/11/18 05:16:17;;;;;;;0.00;0.00;;;;;;;5.11;86.90;102819.31;5060685;28;20044;-68
2021/11/18 05:18:43;;;;;;;0.00;0.00;;;;;;;5.16;86.92;102814.53;5078325;28;20028;-67
2021/11/18 05:21:12;;;;;;;0.00;0.00;;;;;;;5.20;87.02;102814.00;5078249;28;20147;-67
2021/11/18 05:23:38;;;;;;;0.10;0.10;;;;;;;5.23;87.28;102802.16;5061314;28;20039;-68
2021/11/18 05:26:04;;;;;;;0.00;0.00;;;;;;;5.37;87.25;102805.00;5078301;28;20054;-69
2021/11/18 05:28:30;;;;;;;0.00;0.00;;;;;;;5.46;87.49;102823.00;5044455;28;20017;-67
2021/11/18 05:30:56;;;;;;;0.00;0.00;;;;;;;5.51;87.24;102813.91;5078063;28;20025;-67
2021/11/18 05:33:24;;;;;;;0.00;0.00;;;;;;;5.61;87.07;102808.66;5077201;28;20040;-67
2021/11/18 05:35:50;;;;;;;0.00;0.00;;;;;;;5.66;86.95;102803.81;5061005;28;20149;-68
2021/11/18 05:38:15;;;;;;;0.00;0.00;;;;;;;5.73;87.07;102807.84;5060414;28;20108;-68
2021/11/18 05:40:42;;;;;;;0.00;0.00;;;;;;;5.78;86.82;102811.69;5078150;28;20040;-67
2021/11/18 05:43:08;;;;;;;0.00;0.00;;;;;;;5.81;87.02;102818.81;5077928;28;20031;-67
2021/11/18 05:45:34;;;;;;;0.00;0.00;;;;;;;5.81;86.37;102818.81;5078125;28;20291;-68
2021/11/18 05:48:01;;;;;;;0.10;0.10;;;;;;;5.85;86.74;102806.19;5077788;28;20020;-68
2021/11/18 05:50:26;;;;;;;0.00;0.00;;;;;;;5.86;86.53;102809.72;5059711;28;20130;-68
2021/11/18 05:52:52;;;;;;;0.00;0.00;;;;;;;5.92;86.83;102818.00;5060081;28;20350;-68
2021/11/18 05:55:19;;;;;;;0.10;0.10;;;;;;;5.98;86.78;102808.06;5077633;28;20030;-68
2021/11/18 05:57:46;;;;;;;0.10;0.10;;;;;;;5.99;86.52;102809.88;5078189;28;20444;-68
2021/11/18 06:00:18;;;;;;;0.10;0.10;;;;;;;6.00;86.59;102819.50;5077526;28;20047;-68
2021/11/18 06:02:43;;;;;;;0.00;0.00;;;;;;;5.96;86.54;102817.44;5077867;28;20048;-67
2021/11/18 06:05:09;;;;;;;0.00;0.00;;;;;;;5.97;86.56;102821.84;5077214;28;20101;-67
2021/11/18 06:07:34;;;;;;;0.10;0.10;;;;;;;5.96;86.66;102817.44;5077262;28;20063;-68
2021/11/18 06:10:00;;;;;;;0.00;0.00;;;;;;;5.98;86.58;102826.25;5077095;28;20028;-68
2021/11/18 06:12:25;;;;;;;0.43;0.43;;;;;;;5.96;86.46;102819.13;5060121;28;20349;-68
2021/11/18 06:14:52;;;;;;;0.07;0.07;;;;;;;5.94;87.06;102823.31;5077528;28;20035;-69
2021/11/18 06:17:17;;;;;;;0.03;0.03;;;;;;;5.90;86.49;102820.47;5077781;28;20272;-68
2021/11/18 06:19:43;;;;;;;0.07;0.07;;;;;;;5.88;86.48;102823.72;5077216;28;20036;-69
2021/11/18 06:22:08;;;;;;;0.03;0.03;;;;;;;5.91;86.55;102817.09;5059142;28;20025;-68
2021/11/18 06:24:33;;;;;;;0.10;0.10;;;;;;;5.98;86.67;102820.19;5042463;28;20089;-67
2021/11/18 06:26:59;;;;;;;0.00;0.00;;;;;;;6.08;86.61;102808.81;5077401;28;20070;-67
2021/11/18 06:29:25;;;;;;;0.03;0.03;;;;;;;6.04;86.73;102811.19;5077311;28;20054;-68
2021/11/18 06:31:53;;;;;;;0.10;0.10;;;;;;;5.99;86.33;102820.28;5077410;28;20027;-67
2021/11/18 06:34:18;;;;;;;0.03;0.03;;;;;;;5.99;86.42;102816.78;5076389;28;20024;-67
2021/11/18 06:36:45;;;;;;;0.00;0.00;;;;;;;5.95;86.32;102819.91;5076888;28;20050;-67
2021/11/18 06:39:12;;;;;;;0.10;0.10;;;;;;;5.90;86.20;102819.56;5076735;28;20034;-68
2021/11/18 06:41:37;;;;;;;0.10;0.10;;;;;;;5.94;86.61;102825.91;5059576;28;20382;-68
2021/11/18 06:44:03;;;;;;;0.00;0.00;;;;;;;5.93;86.51;102825.00;5059238;28;20099;-68
2021/11/18 06:46:31;;;;;;;0.10;0.10;;;;;;;5.93;86.36;102819.81;5077259;28;20028;-68
2021/11/18 06:48:56;;;;;;;0.00;0.00;;;;;;;5.97;86.55;102823.56;5076382;28;20024;-68
2021/11/18 06:51:23;;;;;;;0.03;0.03;;;;;;;6.01;86.78;102831.72;5077255;28;20090;-69
2021/11/18 06:53:50;;;;;;;0.00;0.00;;;;;;;6.04;86.87;102832.00;5076868;28;20067;-69
2021/11/18 06:56:16;;;;;;;0.00;0.00;;;;;;;6.13;86.89;102828.31;5059363;28;20035;-69
2021/11/18 06:58:42;;;;;;;0.00;0.00;;;;;;;6.16;86.64;102839.84;5076158;28;20082;-69
2021/11/18 07:01:08;;;;;;;0.00;0.00;;;;;;;6.24;86.17;102848.28;5076689;28;20314;-69
2021/11/18 07:03:35;;;;;;;0.00;0.00;;;;;;;6.31;86.61;102845.34;5076393;28;20417;-68
2021/11/18 07:06:00;;;;;;;0.00;0.00;;;;;;;6.39;86.72;102856.34;5042577;28;20031;-68
2021/11/18 07:08:26;;;;;;;0.00;0.00;;;;;;;6.45;86.39;102861.13;5059263;28;20283;-68
2021/11/18 07:10:51;;;;;;;0.00;0.00;;;;;;;6.53;86.44;102873.03;5076812;28;20070;-70
2021/11/18 07:13:20;;;;;;;0.03;0.03;;;;;;;6.58;86.27;102873.38;5059176;28;20021;-68
2021/11/18 07:15:46;;;;;;;0.00;0.00;;;;;;;6.56;85.94;102869.78;5058686;28;20042;-68
2021/11/18 07:18:11;;;;;;;0.10;0.10;;;;;;;6.59;85.83;102856.97;5058980;28;20043;-68
2021/11/18 07:20:39;;;;;;;0.00;0.00;;;;;;;6.67;86.05;102861.06;5075926;28;20028;-68
2021/11/18 07:23:04;;;;;;;0.00;0.00;;;;;;;6.68;85.82;102875.94;5076670;28;20052;-69
2021/11/18 07:25:30;;;;;;;0.10;0.10;;;;;;;6.70;85.70;102878.63;5058942;28;20101;-68
2021/11/18 07:27:56;;;;;;;0.00;0.00;;;;;;;6.68;85.69;102882.81;5076513;28;20162;-68
2021/11/18 07:30:23;;;;;;;0.10;0.10;;;;;;;6.66;85.59;102887.91;5076480;28;20013;-69
2021/11/18 07:32:49;;;;;;;0.10;0.10;;;;;;;6.63;85.63;102889.38;5076345;28;21913;-69
2021/11/18 07:35:15;;;;;;;0.10;0.10;;;;;;;6.60;85.63;102883.16;5079953;28;20034;-69
2021/11/18 07:37:40;;;;;;;0.10;0.10;;;;;;;6.57;85.59;102884.59;5080841;28;20020;-69
2021/11/18 07:40:09;;;;;;;0.10;0.10;;;;;;;6.58;85.64;102882.13;5080193;28;20056;-68
2021/11/18 07:42:34;;;;;;;0.10;0.10;;;;;;;6.66;85.80;102887.03;5080686;28;20020;-69
2021/11/18 07:45:00;;;;;;;0.10;0.10;;;;;;;6.71;85.65;102888.25;5080095;28;20089;-67
2021/11/18 07:47:26;;;;;;;0.07;0.07;;;;;;;6.80;85.41;102885.47;5063350;28;20032;-69
2021/11/18 07:49:53;;;;;;;0.10;0.10;;;;;;;6.80;85.16;102877.66;5061709;28;20132;-69
2021/11/18 07:52:18;;;;;;;0.20;0.20;;;;;;;6.84;85.21;102875.41;5080389;28;20020;-70
2021/11/18 07:54:43;;;;;;;0.00;0.00;;;;;;;6.87;84.66;102870.41;5080237;28;20039;-70
2021/11/18 07:57:09;;;;;;;0.10;0.10;;;;;;;6.87;84.96;102867.81;5079955;28;20108;-69
2021/11/18 07:59:34;;;;;;;0.07;0.07;;;;;;;6.90;84.69;102882.78;5080065;28;20063;-69
2021/11/18 08:01:59;;;;;;;0.00;0.00;;;;;;;6.92;84.68;102898.53;5062581;28;20112;-68
2021/11/18 08:04:25;;;;;;;0.00;0.00;;;;;;;6.90;84.59;102885.38;5079512;28;20111;-69
2021/11/18 08:06:50;;;;;;;0.10;0.10;;;;;;;6.85;84.59;102879.81;5079166;28;20020;-70
2021/11/18 08:09:16;;;;;;;0.10;0.10;;;;;;;6.84;84.71;102875.41;5045452;28;20028;-69
2021/11/18 08:11:46;;;;;;;0.10;0.10;;;;;;;6.80;84.64;102877.66;5062441;28;20025;-69
2021/11/18 08:14:14;;;;;;;0.00;0.00;;;;;;;6.81;84.88;102875.19;5062082;28;20028;-70
2021/11/18 08:16:40;;;;;;;0.10;0.10;;;;;;;6.82;84.91;102877.00;5079975;28;20020;-70
2021/11/18 08:19:06;;;;;;;0.10;0.10;;;;;;;6.85;84.44;102882.41;5061520;28;20035;-69
2021/11/18 08:21:32;;;;;;;0.20;0.20;;;;;;;6.92;84.60;102883.78;5079945;28;20059;-69
2021/11/18 08:23:58;;;;;;;0.10;0.10;;;;;;;6.93;84.63;102885.63;5061447;28;20086;-69
2021/11/18 08:26:25;;;;;;;0.10;0.10;;;;;;;6.93;84.54;102889.91;5062349;28;20021;-69
2021/11/18 08:28:51;;;;;;;0.10;0.10;;;;;;;6.92;84.51;102881.19;5061951;28;20025;-69
2021/11/18 08:31:17;;;;;;;0.00;0.00;;;;;;;6.97;84.42;102881.56;5062086;28;20031;-70
2021/11/18 08:33:44;;;;;;;0.10;0.10;;;;;;;7.00;84.30;102881.78;5078984;28;20154;-70
2021/11/18 08:36:09;;;;;;;0.10;0.10;;;;;;;7.11;84.23;102886.09;5076215;28;20461;-70
2021/11/18 08:38:35;;;;;;;0.10;0.10;;;;;;;7.18;84.18;102884.88;5069750;28;20028;-70
2021/11/18 08:41:04;;;;;;;0.10;0.10;;;;;;;7.26;83.91;102882.81;5074844;28;20402;-70
2021/11/18 08:43:33;;;;;;;0.07;0.07;;;;;;;7.35;83.77;102880.00;5078062;28;20046;-70
2021/11/18 08:46:02;;;;;;;0.10;0.10;;;;;;;7.43;83.68;102868.44;5059400;28;20102;-69
2021/11/18 08:48:28;;;;;;;0.10;0.10;;;;;;;7.54;83.88;102869.25;5077347;28;20094;-70
2021/11/18 08:50:55;;;;;;;0.33;0.33;;;;;;;7.64;83.25;102876.00;5079003;28;20021;-69
2021/11/18 08:53:24;;;;;;;0.10;0.10;;;;;;;7.75;82.37;102872.50;5079143;28;20060;-71
2021/11/18 08:55:50;;;;;;;0.10;0.10;;;;;;;7.79;81.89;102879.75;5079298;28;20025;-70
2021/11/18 08:58:19;;;;;;;0.10;0.10;;;;;;;7.73;82.03;102881.94;5071390;28;20059;-69
2021/11/18 09:00:49;;;;;;;0.10;0.10;;;;;;;7.64;82.35;102882.16;5041552;28;20025;-70
2021/11/18 09:03:15;;;;;;;0.20;0.20;;;;;;;7.56;82.85;102873.75;5058568;28;20017;-69
2021/11/18 09:05:41;;;;;;;0.10;0.10;;;;;;;7.55;83.05;102879.75;5041888;28;20025;-69
2021/11/18 09:08:06;;;;;;;0.10;0.10;;;;;;;7.58;82.83;102871.25;5075302;28;20403;-69
2021/11/18 09:10:34;;;;;;;0.10;0.10;;;;;;;7.63;82.86;102880.34;5061482;28;20287;-69
2021/11/18 09:12:59;;;;;;;0.20;0.20;;;;;;;7.67;82.92;102878.88;5061113;28;20071;-69
2021/11/18 09:15:26;;;;;;;0.10;0.10;;;;;;;7.80;82.83;102880.66;5060561;28;20060;-69
2021/11/18 09:17:53;;;;;;;0.30;0.30;;;;;;;7.90;82.35;102885.72;5078883;28;20032;-69
2021/11/18 09:20:20;;;;;;;0.10;0.10;;;;;;;8.02;82.14;102879.59;5058562;28;20044;-69
2021/11/18 09:22:47;;;;;;;0.10;0.10;;;;;;;8.16;81.75;102883.19;5074198;28;20401;-69
2021/11/18 09:25:14;;;;;;;0.10;0.10;;;;;;;8.24;81.33;102884.63;5061008;28;20395;-69
2021/11/18 09:27:47;;;;;;;0.27;0.27;;;;;;;8.33;81.47;102885.28;5069496;28;20040;-69
2021/11/18 09:30:19;;;;;;;0.17;0.17;;;;;;;8.40;80.96;102886.59;5072105;28;20043;-68
2021/11/18 09:32:44;;;;;;;0.10;0.10;;;;;;;8.44;81.14;102882.50;5069373;28;20352;-69
2021/11/18 09:35:13;;;;;;;0.20;0.20;;;;;;;8.50;80.64;102889.09;5071096;28;20039;-70
2021/11/18 09:37:38;;;;;;;0.10;0.10;;;;;;;8.59;80.27;102881.00;5068729;28;20044;-69
2021/11/18 09:40:07;;;;;;;0.20;0.20;;;;;;;8.65;79.92;102880.50;5075889;28;20024;-69
2021/11/18 09:42:46;;;;;;;0.20;0.20;;;;;;;8.72;79.71;102887.09;5055564;28;20302;-69
2021/11/18 09:45:17;;;;;;;0.30;0.30;;;;;;;8.84;79.76;102880.06;5057617;28;20054;-69
2021/11/18 09:48:20;;;;;;;0.20;0.20;;;;;;;8.91;79.15;102887.53;5056584;28;20043;-69
2021/11/18 09:50:56;;;;;;;0.27;0.27;;;;;;;9.17;78.33;102896.22;5077969;28;20039;-69
2021/11/18 09:53:33;;;;;;;0.25;0.25;;;;;;;9.13;78.45;102909.91;5077640;28;20029;-68
2021/11/18 09:56:07;;;;;;;0.27;0.27;;;;;;;9.25;78.01;102911.50;5060514;28;20028;-69
2021/11/18 09:58:54;;;;;;;0.30;0.30;;;;;;;9.34;78.05;102914.75;5060612;28;20319;-69
2021/11/18 10:01:51;;;;;;;0.20;0.20;;;;;;;9.40;77.92;102915.16;5077788;28;20047;-68
2021/11/18 10:04:48;;;;;;;0.30;0.30;;;;;;;9.49;77.67;102917.47;5076625;28;20048;-71
2021/11/18 10:07:35;;;;;;;0.20;0.20;;;;;;;9.58;77.41;102915.47;5077075;28;20044;-68
2021/11/18 10:10:16;;;;;;;0.40;0.40;;;;;;;9.62;76.78;102919.19;5077114;28;20065;-68
2021/11/18 10:13:15;;;;;;;0.30;0.30;;;;;;;9.69;76.32;102904.78;5077907;28;20322;-69
2021/11/18 10:15:48;;;;;;;0.30;0.30;;;;;;;9.76;75.97;102909.63;5067684;28;20037;-70
2021/11/18 10:18:18;;;;;;;0.20;0.20;;;;;;;9.79;76.19;102909.84;5058839;28;20345;-68
2021/11/18 10:20:45;;;;;;;0.30;0.30;;;;;;;9.86;75.67;102913.75;5077498;28;20103;-69
2021/11/18 10:23:14;;;;;;;0.43;0.43;;;;;;;9.94;75.61;102923.00;5060062;28;20013;-69
2021/11/18 10:25:44;;;;;;;0.60;0.60;;;;;;;9.98;75.11;102911.00;5076505;28;20036;-70
2021/11/18 10:28:18;;;;;;;0.30;0.30;;;;;;;10.00;74.97;102910.31;5053491;28;20017;-71
2021/11/18 10:30:50;;;;;;;0.30;0.30;;;;;;;10.05;74.95;102902.75;5077413;28;20021;-71
2021/11/18 10:33:22;;;;;;;0.40;0.40;;;;;;;10.09;74.79;102901.22;5059871;28;20174;-70
2021/11/18 10:35:53;;;;;;;0.40;0.40;;;;;;;10.20;74.87;102897.56;5059555;28;20032;-71
2021/11/18 10:38:23;;;;;;;0.40;0.40;;;;;;;10.29;74.18;102897.25;5076191;28;20044;-71
2021/11/18 10:41:15;;;;;;;0.50;0.50;;;;;;;10.30;74.13;102889.50;5059644;28;20034;-71
2021/11/18 10:43:41;;;;;;;0.30;0.30;;;;;;;10.37;74.42;102901.25;5065585;28;20039;-70
2021/11/18 10:46:08;;;;;;;0.40;0.40;;;;;;;10.46;73.99;102892.19;5054656;28;20036;-70
2021/11/18 10:48:37;;;;;;;0.30;0.30;;;;;;;10.56;73.52;102890.22;5061766;28;20040;-69
2021/11/18 10:51:09;;;;;;;0.50;0.50;;;;;;;10.68;73.31;102899.63;5056779;28;20055;-69
2021/11/18 10:53:55;;;;;;;0.37;0.37;;;;;;;10.74;72.60;102883.38;5056814;28;20067;-68
2021/11/18 10:56:23;;;;;;;0.40;0.40;;;;;;;10.78;72.29;102881.00;5063125;28;20024;-69
2021/11/18 10:59:09;;;;;;;0.40;0.40;;;;;;;10.86;72.21;102860.53;5076944;28;20031;-71
2021/11/18 11:01:43;;;;;;;0.43;0.43;;;;;;;10.86;72.29;102864.03;5076725;28;20037;-70
2021/11/18 11:04:10;;;;;;;0.60;0.60;;;;;;;10.92;72.50;102855.66;5059357;28;20017;-68
2021/11/18 11:06:41;;;;;;;0.37;0.37;;;;;;;10.89;72.32;102847.59;5076707;28;20024;-69
2021/11/18 11:09:10;;;;;;;0.40;0.40;;;;;;;11.04;71.75;102855.47;5076012;28;20028;-72
2021/11/18 11:11:51;;;;;;;0.57;0.57;;;;;;;11.14;70.86;102838.53;5076951;28;20043;-73
2021/11/18 11:14:53;;;;;;;0.40;0.40;;;;;;;11.19;71.09;102850.22;5057376;28;20025;-70
2021/11/18 11:17:43;;;;;;;0.40;0.40;;;;;;;11.20;71.21;102849.38;5049511;28;20032;-69
2021/11/18 11:20:36;;;;;;;0.47;0.47;;;;;;;11.21;71.50;102851.19;5041471;28;20294;-70
2021/11/18 11:23:29;;;;;;;0.40;0.40;;;;;;;11.25;70.65;102857.53;5076840;28;20020;-71
2021/11/18 11:26:20;;;;;;;0.50;0.50;;;;;;;11.29;70.50;102855.97;5030185;28;20371;-67
2021/11/18 11:29:24;;;;;;;0.70;0.70;;;;;;;11.39;70.15;102847.81;5055033;28;20133;-69
2021/11/18 11:32:11;;;;;;;0.47;0.47;;;;;;;11.49;69.62;102846.63;5076739;28;20031;-70
2021/11/18 11:34:51;;;;;;;0.33;0.33;;;;;;;11.43;70.18;102856.75;5039128;28;20048;-70
2021/11/18 11:37:41;;;;;;;0.50;0.50;;;;;;;11.47;69.80;102861.38;5066382;28;20161;-70